Time,TemperatureF,DewpointF,PressureIn,WindDirection,WindDirectionDegrees,WindSpeedMPH,WindSpeedGustMPH,Humidity,HourlyPrecipIn,Conditions,Clouds,dailyrainin,SoftwareType,DateUTC
2013-08-24 00:00:00,68.1,67.8,30.02,WNW,283,0.0,1.0,99,0.00,,---,0.03,VWS V14.01,2013-08-24 04:00:00,
2013-08-24 00:01:00,67.2,66.9,30.04,WNW,283,0.0,0.0,99,0.00,,---,0.00,VWS V14.01,2013-08-24 04:01:00,
2013-08-24 00:02:00,67.2,66.9,30.04,WNW,283,0.0,0.0,99,0.00,,---,0.00,VWS V14.01,2013-08-24 04:02:00,
2013-08-24 00:05:00,68.1,67.8,30.03,WNW,283,0.0,0.0,99,0.00,,---,0.03,VWS V14.01,2013-08-24 04:05:00,
2013-08-24 00:07:00,67.3,67.0,30.04,WNW,283,0.0,1.0,99,0.00,,---,0.00,VWS V14.01,2013-08-24 04:07:00,
2013-08-24 00:10:00,68.0,67.7,30.03,WNW,283,0.0,0.0,99,0.00,,---,0.03,VWS V14.01,2013-08-24 04:10:00,
2013-08-24 00:12:00,67.3,67.0,30.04,WNW,283,0.0,0.0,99,0.00,,---,0.00,VWS V14.01,2013-08-24 04:12:00,
2013-08-24 00:15:00,67.9,67.6,30.03,WNW,283,0.0,1.0,99,0.00,,---,0.03,VWS V14.01,2013-08-24 04:15:00,
2013-08-24 00:17:00,67.1,66.8,30.04,WNW,283,0.0,0.0,99,0.00,,---,0.00,VWS V14.01,2013-08-24 04:17:00,
2013-08-24 00:20:00,67.9,67.6,30.03,WNW,283,0.0,0.0,99,0.00,,---,0.03,VWS V14.01,2013-08-24 04:20:00,
2013-08-24 00:22:00,67.2,66.9,30.04,WNW,283,0.0,0.0,99,0.00,,---,0.00,VWS V14.01,2013-08-24 04:22:00,
2013-08-24 00:25:00,67.7,67.1,30.03,WNW,283,0.0,0.0,98,0.00,,---,0.03,VWS V14.01,2013-08-24 04:25:00,
2013-08-24 00:27:00,67.2,66.9,30.04,WNW,283,0.0,0.0,99,0.00,,---,0.00,VWS V14.01,2013-08-24 04:27:00,
2013-08-24 00:30:00,67.6,67.0,30.03,WNW,283,0.0,0.0,98,0.00,,---,0.03,VWS V14.01,2013-08-24 04:30:00,
2013-08-24 00:32:00,67.1,66.8,30.04,WNW,283,0.0,0.0,99,0.00,,---,0.00,VWS V14.01,2013-08-24 04:32:00,
2013-08-24 00:35:00,67.5,67.2,30.03,WNW,283,0.0,0.0,99,0.00,,---,0.03,VWS V14.01,2013-08-24 04:35:00,
2013-08-24 00:37:00,67.1,66.8,30.03,WNW,283,0.0,0.0,99,0.00,,---,0.00,VWS V14.01,2013-08-24 04:37:00,
2013-08-24 00:40:00,67.6,67.3,30.03,WNW,283,0.0,0.0,99,0.00,,---,0.03,VWS V14.01,2013-08-24 04:40:00,
2013-08-24 00:42:00,66.9,66.6,30.03,WNW,283,0.0,0.0,99,0.00,,---,0.00,VWS V14.01,2013-08-24 04:42:00,
2013-08-24 00:45:00,67.5,67.2,30.03,WNW,283,0.0,0.0,99,0.00,,---,0.03,VWS V14.01,2013-08-24 04:45:00,
2013-08-24 00:47:00,66.9,66.6,30.03,WNW,283,0.0,0.0,99,0.00,,---,0.00,VWS V14.01,2013-08-24 04:47:00,
2013-08-24 00:50:00,67.5,67.2,30.04,WNW,283,0.0,0.0,99,0.00,,---,0.03,VWS V14.01,2013-08-24 04:50:00,
2013-08-24 00:52:00,66.8,66.5,30.03,WNW,283,0.0,0.0,99,0.00,,---,0.00,VWS V14.01,2013-08-24 04:52:00,
2013-08-24 00:55:00,67.4,67.1,30.04,WNW,283,0.0,0.0,99,0.00,,---,0.03,VWS V14.01,2013-08-24 04:55:00,
2013-08-24 00:57:00,66.9,66.6,30.03,WNW,283,0.0,0.0,99,0.00,,---,0.00,VWS V14.01,2013-08-24 04:57:00,
2013-08-24 01:00:00,67.2,66.9,30.04,WNW,283,0.0,0.0,99,0.00,,---,0.00,VWS V14.01,2013-08-24 05:00:00,
2013-08-24 01:02:00,66.9,66.6,30.03,WNW,283,0.0,1.0,99,0.00,,---,0.00,VWS V14.01,2013-08-24 05:02:00,
2013-08-24 01:05:00,67.2,66.9,30.04,WNW,283,0.0,0.0,99,0.00,,---,0.00,VWS V14.01,2013-08-24 05:05:00,
2013-08-24 01:07:00,66.8,66.5,30.03,WNW,283,0.0,0.0,99,0.00,,---,0.00,VWS V14.01,2013-08-24 05:07:00,
2013-08-24 01:10:00,67.3,67.0,30.04,WNW,283,0.0,1.0,99,0.00,,---,0.00,VWS V14.01,2013-08-24 05:10:00,
2013-08-24 01:12:00,66.7,66.4,30.03,WNW,283,0.0,0.0,99,0.00,,---,0.00,VWS V14.01,2013-08-24 05:12:00,
2013-08-24 01:15:00,67.2,66.9,30.04,WNW,283,0.0,0.0,99,0.00,,---,0.00,VWS V14.01,2013-08-24 05:15:00,
2013-08-24 01:17:00,66.7,66.4,30.03,WNW,283,0.0,0.0,99,0.00,,---,0.00,VWS V14.01,2013-08-24 05:17:00,
2013-08-24 01:20:00,67.2,66.9,30.04,WNW,283,0.0,0.0,99,0.00,,---,0.00,VWS V14.01,2013-08-24 05:20:00,
2013-08-24 01:22:00,66.8,66.5,30.03,WNW,283,0.0,0.0,99,0.00,,---,0.00,VWS V14.01,2013-08-24 05:22:00,
2013-08-24 01:25:00,67.2,66.9,30.04,WNW,283,0.0,0.0,99,0.00,,---,0.00,VWS V14.01,2013-08-24 05:25:00,
2013-08-24 01:27:00,66.7,66.4,30.02,WNW,283,0.0,1.0,99,0.00,,---,0.00,VWS V14.01,2013-08-24 05:27:00,
2013-08-24 01:30:00,67.2,66.9,30.04,WNW,283,0.0,0.0,99,0.00,,---,0.00,VWS V14.01,2013-08-24 05:30:00,
2013-08-24 01:32:00,66.8,66.5,30.02,WNW,283,0.0,0.0,99,0.00,,---,0.00,VWS V14.01,2013-08-24 05:32:00,
2013-08-24 01:35:00,67.1,66.8,30.04,WNW,283,0.0,0.0,99,0.00,,---,0.00,VWS V14.01,2013-08-24 05:35:00,
2013-08-24 01:37:00,66.8,66.5,30.02,WNW,283,0.0,0.0,99,0.00,,---,0.00,VWS V14.01,2013-08-24 05:37:00,
2013-08-24 01:40:00,67.0,66.7,30.03,WNW,283,0.0,0.0,99,0.00,,---,0.00,VWS V14.01,2013-08-24 05:40:00,
2013-08-24 01:42:00,66.6,66.3,30.02,WNW,283,0.0,0.0,99,0.00,,---,0.00,VWS V14.01,2013-08-24 05:42:00,
2013-08-24 01:45:00,66.9,66.6,30.03,WNW,283,0.0,0.0,99,0.00,,---,0.00,VWS V14.01,2013-08-24 05:45:00,
2013-08-24 01:47:00,66.5,66.2,30.02,WNW,283,0.0,0.0,99,0.00,,---,0.00,VWS V14.01,2013-08-24 05:47:00,
2013-08-24 01:50:00,66.8,66.5,30.03,WNW,283,0.0,0.0,99,0.00,,---,0.00,VWS V14.01,2013-08-24 05:50:00,
2013-08-24 01:52:00,66.4,66.1,30.02,WNW,283,0.0,0.0,99,0.00,,---,0.00,VWS V14.01,2013-08-24 05:52:00,
2013-08-24 01:55:00,66.9,66.6,30.03,WNW,283,0.0,0.0,99,0.00,,---,0.00,VWS V14.01,2013-08-24 05:55:00,
2013-08-24 01:57:00,66.4,66.1,30.02,WNW,283,0.0,0.0,99,0.00,,---,0.00,VWS V14.01,2013-08-24 05:57:00,
2013-08-24 02:00:00,66.9,66.6,30.03,WNW,283,0.0,0.0,99,0.00,,---,0.00,VWS V14.01,2013-08-24 06:00:00,
2013-08-24 02:02:00,66.3,66.0,30.02,WNW,283,0.0,0.0,99,0.00,,---,0.00,VWS V14.01,2013-08-24 06:02:00,
2013-08-24 02:05:00,66.8,66.5,30.03,WNW,283,0.0,1.0,99,0.00,,---,0.00,VWS V14.01,2013-08-24 06:05:00,
2013-08-24 02:07:00,66.2,65.9,30.02,WNW,283,0.0,0.0,99,0.00,,---,0.00,VWS V14.01,2013-08-24 06:07:00,
2013-08-24 02:10:00,66.7,66.4,30.03,WNW,283,0.0,0.0,99,0.00,,---,0.00,VWS V14.01,2013-08-24 06:10:00,
2013-08-24 02:12:00,66.2,65.9,30.02,WNW,283,0.0,0.0,99,0.00,,---,0.00,VWS V14.01,2013-08-24 06:12:00,
2013-08-24 02:15:00,66.7,66.4,30.03,WNW,283,0.0,0.0,99,0.00,,---,0.00,VWS V14.01,2013-08-24 06:15:00,
2013-08-24 02:17:00,66.2,66.2,30.02,WNW,283,0.0,0.0,100,0.00,,---,0.00,VWS V14.01,2013-08-24 06:17:00,
2013-08-24 02:20:00,66.7,66.4,30.03,WNW,283,0.0,1.0,99,0.00,,---,0.00,VWS V14.01,2013-08-24 06:20:00,
2013-08-24 02:22:00,66.2,66.2,30.01,WNW,283,0.0,0.0,100,0.00,,---,0.00,VWS V14.01,2013-08-24 06:22:00,
2013-08-24 02:25:00,66.8,66.5,30.02,WNW,283,0.0,0.0,99,0.00,,---,0.00,VWS V14.01,2013-08-24 06:25:00,
2013-08-24 02:27:00,66.2,66.2,30.01,WNW,283,0.0,0.0,100,0.00,,---,0.00,VWS V14.01,2013-08-24 06:27:00,
2013-08-24 02:30:00,66.8,66.5,30.02,WNW,283,0.0,1.0,99,0.00,,---,0.00,VWS V14.01,2013-08-24 06:30:00,
2013-08-24 02:32:00,66.1,65.8,30.01,WNW,283,0.0,0.0,99,0.00,,---,0.00,VWS V14.01,2013-08-24 06:32:00,
2013-08-24 02:35:00,66.8,66.5,30.02,WNW,283,0.0,0.0,99,0.00,,---,0.00,VWS V14.01,2013-08-24 06:35:00,
2013-08-24 02:37:00,66.1,66.1,30.01,WNW,283,0.0,0.0,100,0.00,,---,0.00,VWS V14.01,2013-08-24 06:37:00,
2013-08-24 02:40:00,66.7,66.4,30.02,WNW,283,0.0,0.0,99,0.00,,---,0.00,VWS V14.01,2013-08-24 06:40:00,
2013-08-24 02:42:00,66.0,66.0,30.01,WNW,283,0.0,0.0,100,0.00,,---,0.00,VWS V14.01,2013-08-24 06:42:00,
2013-08-24 02:45:00,66.6,66.3,30.02,WNW,283,0.0,0.0,99,0.00,,---,0.00,VWS V14.01,2013-08-24 06:45:00,
2013-08-24 02:47:00,66.0,66.0,30.01,WNW,283,0.0,0.0,100,0.00,,---,0.00,VWS V14.01,2013-08-24 06:47:00,
2013-08-24 02:50:00,66.5,66.2,30.02,WNW,283,0.0,0.0,99,0.00,,---,0.00,VWS V14.01,2013-08-24 06:50:00,
2013-08-24 02:52:00,66.0,66.0,30.01,WNW,283,0.0,0.0,100,0.00,,---,0.00,VWS V14.01,2013-08-24 06:52:00,
2013-08-24 02:55:00,66.4,66.1,30.02,WNW,283,0.0,0.0,99,0.00,,---,0.00,VWS V14.01,2013-08-24 06:55:00,
2013-08-24 02:57:00,66.0,66.0,30.01,WNW,283,0.0,1.0,100,0.00,,---,0.00,VWS V14.01,2013-08-24 06:57:00,
2013-08-24 03:00:00,66.3,66.0,30.02,WNW,283,0.0,0.0,99,0.00,,---,0.00,VWS V14.01,2013-08-24 07:00:00,
2013-08-24 03:02:00,66.0,66.0,30.01,WNW,283,0.0,0.0,100,0.00,,---,0.00,VWS V14.01,2013-08-24 07:02:00,
2013-08-24 03:05:00,66.3,66.0,30.02,WNW,283,0.0,0.0,99,0.00,,---,0.00,VWS V14.01,2013-08-24 07:05:00,
2013-08-24 03:07:00,66.0,66.0,30.01,WNW,283,0.0,0.0,100,0.00,,---,0.00,VWS V14.01,2013-08-24 07:07:00,
2013-08-24 03:10:00,66.2,65.9,30.02,WNW,283,0.0,0.0,99,0.00,,---,0.00,VWS V14.01,2013-08-24 07:10:00,
2013-08-24 03:12:00,66.0,66.0,30.01,WNW,283,0.0,0.0,100,0.00,,---,0.00,VWS V14.01,2013-08-24 07:12:00,
2013-08-24 03:15:00,66.2,65.9,30.02,WNW,283,0.0,0.0,99,0.00,,---,0.00,VWS V14.01,2013-08-24 07:15:00,
2013-08-24 03:17:00,66.0,66.0,30.01,WNW,283,0.0,0.0,100,0.00,,---,0.00,VWS V14.01,2013-08-24 07:17:00,
2013-08-24 03:20:00,66.2,66.2,30.02,WNW,283,0.0,0.0,100,0.00,,---,0.00,VWS V14.01,2013-08-24 07:20:00,
2013-08-24 03:22:00,65.7,65.7,30.01,WNW,283,0.0,1.0,100,0.00,,---,0.00,VWS V14.01,2013-08-24 07:22:00,
2013-08-24 03:25:00,66.2,66.2,30.01,WNW,283,0.0,0.0,100,0.00,,---,0.00,VWS V14.01,2013-08-24 07:25:00,
2013-08-24 03:27:00,65.7,65.7,30.01,SW,221,0.0,0.0,100,0.00,,---,0.00,VWS V14.01,2013-08-24 07:27:00,
2013-08-24 03:30:00,66.2,66.2,30.01,WNW,283,0.0,0.0,100,0.00,,---,0.00,VWS V14.01,2013-08-24 07:30:00,
2013-08-24 03:32:00,65.5,65.2,30.02,SW,221,0.0,0.0,99,0.00,,---,0.00,VWS V14.01,2013-08-24 07:32:00,
2013-08-24 03:35:00,66.0,65.7,30.01,WNW,283,0.0,0.0,99,0.00,,---,0.00,VWS V14.01,2013-08-24 07:35:00,
2013-08-24 03:37:00,65.5,65.5,30.02,SW,221,0.0,0.0,100,0.00,,---,0.00,VWS V14.01,2013-08-24 07:37:00,
2013-08-24 03:40:00,66.1,66.1,30.01,WNW,283,0.0,0.0,100,0.00,,---,0.00,VWS V14.01,2013-08-24 07:40:00,
2013-08-24 03:42:00,65.5,65.5,30.03,SW,221,0.0,0.0,100,0.00,,---,0.00,VWS V14.01,2013-08-24 07:42:00,
2013-08-24 03:45:00,66.0,66.0,30.01,WNW,283,0.0,0.0,100,0.00,,---,0.00,VWS V14.01,2013-08-24 07:45:00,
2013-08-24 03:47:00,65.6,65.6,30.03,SW,222,0.0,0.0,100,0.00,,---,0.00,VWS V14.01,2013-08-24 07:47:00,
2013-08-24 03:50:00,66.0,66.0,30.01,WNW,283,0.0,0.0,100,0.00,,---,0.00,VWS V14.01,2013-08-24 07:50:00,
2013-08-24 03:52:00,65.5,65.5,30.03,SW,222,0.0,0.0,100,0.00,,---,0.00,VWS V14.01,2013-08-24 07:52:00,
2013-08-24 03:55:00,66.0,66.0,30.01,WNW,283,0.0,0.0,100,0.00,,---,0.00,VWS V14.01,2013-08-24 07:55:00,
2013-08-24 03:57:00,65.2,65.2,30.03,SW,222,0.0,0.0,100,0.00,,---,0.00,VWS V14.01,2013-08-24 07:57:00,
2013-08-24 04:00:00,66.0,66.0,30.01,WNW,283,0.0,1.0,100,0.00,,---,0.00,VWS V14.01,2013-08-24 08:00:00,
2013-08-24 04:02:00,65.1,65.1,30.03,SW,222,0.0,0.0,100,0.00,,---,0.00,VWS V14.01,2013-08-24 08:02:00,
2013-08-24 04:05:00,66.0,66.0,30.01,WNW,283,0.0,0.0,100,0.00,,---,0.00,VWS V14.01,2013-08-24 08:05:00,
2013-08-24 04:07:00,65.1,65.1,30.03,SW,222,0.0,0.0,100,0.00,,---,0.00,VWS V14.01,2013-08-24 08:07:00,
2013-08-24 04:10:00,65.9,65.9,30.01,WNW,283,0.0,0.0,100,0.00,,---,0.00,VWS V14.01,2013-08-24 08:10:00,
2013-08-24 04:12:00,65.0,65.0,30.03,SW,222,0.0,0.0,100,0.00,,---,0.00,VWS V14.01,2013-08-24 08:12:00,
2013-08-24 04:15:00,66.0,66.0,30.01,WNW,283,0.0,0.0,100,0.00,,---,0.00,VWS V14.01,2013-08-24 08:15:00,
2013-08-24 04:17:00,64.8,64.5,30.04,SW,222,0.0,0.0,99,0.00,,---,0.00,VWS V14.01,2013-08-24 08:17:00,
2013-08-24 04:20:00,65.9,65.9,30.01,WNW,283,0.0,0.0,100,0.00,,---,0.00,VWS V14.01,2013-08-24 08:20:00,
2013-08-24 04:22:00,65.0,65.0,30.04,WSW,245,1.0,2.0,100,0.00,,---,0.00,VWS V14.01,2013-08-24 08:22:00,
2013-08-24 04:25:00,65.7,65.7,30.01,SW,221,0.0,1.0,100,0.00,,---,0.00,VWS V14.01,2013-08-24 08:25:00,
2013-08-24 04:27:00,65.1,65.1,30.04,WSW,245,0.0,0.0,100,0.00,,---,0.00,VWS V14.01,2013-08-24 08:27:00,
2013-08-24 04:30:00,65.6,65.3,30.02,SW,221,0.0,0.0,99,0.00,,---,0.00,VWS V14.01,2013-08-24 08:30:00,
2013-08-24 04:32:00,64.9,64.9,30.04,WSW,245,0.0,0.0,100,0.00,,---,0.00,VWS V14.01,2013-08-24 08:32:00,
2013-08-24 04:35:00,65.5,65.5,30.02,SW,221,0.0,0.0,100,0.00,,---,0.00,VWS V14.01,2013-08-24 08:35:00,
2013-08-24 04:37:00,64.7,64.7,30.04,WSW,245,0.0,0.0,100,0.00,,---,0.00,VWS V14.01,2013-08-24 08:37:00,
2013-08-24 04:40:00,65.4,65.4,30.02,SW,221,0.0,0.0,100,0.00,,---,0.00,VWS V14.01,2013-08-24 08:40:00,
2013-08-24 04:42:00,64.6,64.6,30.04,WSW,245,0.0,0.0,100,0.00,,---,0.00,VWS V14.01,2013-08-24 08:42:00,
2013-08-24 04:45:00,65.5,65.5,30.03,SW,222,0.0,0.0,100,0.00,,---,0.00,VWS V14.01,2013-08-24 08:45:00,
2013-08-24 04:47:00,64.6,64.6,30.04,WSW,245,0.0,0.0,100,0.00,,---,0.00,VWS V14.01,2013-08-24 08:47:00,
2013-08-24 04:50:00,65.6,65.6,30.03,SW,222,0.0,0.0,100,0.00,,---,0.00,VWS V14.01,2013-08-24 08:50:00,
2013-08-24 04:52:00,64.5,64.5,30.04,WSW,245,0.0,0.0,100,0.00,,---,0.00,VWS V14.01,2013-08-24 08:52:00,
2013-08-24 04:55:00,65.3,65.3,30.03,SW,222,0.0,0.0,100,0.00,,---,0.00,VWS V14.01,2013-08-24 08:55:00,
2013-08-24 04:57:00,64.5,64.5,30.05,WSW,245,0.0,0.0,100,0.00,,---,0.00,VWS V14.01,2013-08-24 08:57:00,
2013-08-24 05:00:00,65.2,65.2,30.03,SW,222,0.0,0.0,100,0.00,,---,0.00,VWS V14.01,2013-08-24 09:00:00,
2013-08-24 05:02:00,64.4,64.4,30.05,WSW,245,0.0,0.0,100,0.00,,---,0.00,VWS V14.01,2013-08-24 09:02:00,
2013-08-24 05:05:00,65.1,65.1,30.03,SW,222,0.0,0.0,100,0.00,,---,0.00,VWS V14.01,2013-08-24 09:05:00,
2013-08-24 05:07:00,64.3,64.3,30.05,WSW,245,0.0,0.0,100,0.00,,---,0.00,VWS V14.01,2013-08-24 09:07:00,
2013-08-24 05:10:00,65.1,65.1,30.03,SW,222,0.0,0.0,100,0.00,,---,0.00,VWS V14.01,2013-08-24 09:10:00,
2013-08-24 05:12:00,64.3,64.3,30.05,WSW,245,0.0,0.0,100,0.00,,---,0.00,VWS V14.01,2013-08-24 09:12:00,
2013-08-24 05:15:00,64.9,64.9,30.03,SW,222,0.0,0.0,100,0.00,,---,0.00,VWS V14.01,2013-08-24 09:15:00,
2013-08-24 05:17:00,64.3,64.3,30.05,WSW,245,0.0,0.0,100,0.00,,---,0.00,VWS V14.01,2013-08-24 09:17:00,
2013-08-24 05:20:00,64.8,64.8,30.04,SW,222,1.0,1.0,100,0.00,,---,0.00,VWS V14.01,2013-08-24 09:20:00,
2013-08-24 05:22:00,64.3,64.3,30.05,WSW,245,0.0,0.0,100,0.00,,---,0.00,VWS V14.01,2013-08-24 09:22:00,
2013-08-24 05:25:00,65.1,65.1,30.04,WSW,245,0.0,2.0,100,0.00,,---,0.00,VWS V14.01,2013-08-24 09:25:00,
2013-08-24 05:27:00,64.2,64.2,30.05,WSW,245,0.0,0.0,100,0.00,,---,0.00,VWS V14.01,2013-08-24 09:27:00,
2013-08-24 05:30:00,65.1,65.1,30.04,WSW,245,0.0,0.0,100,0.00,,---,0.00,VWS V14.01,2013-08-24 09:30:00,
2013-08-24 05:32:00,64.1,64.1,30.05,WSW,245,0.0,0.0,100,0.00,,---,0.00,VWS V14.01,2013-08-24 09:32:00,
2013-08-24 05:35:00,64.9,64.9,30.04,WSW,245,0.0,0.0,100,0.00,,---,0.00,VWS V14.01,2013-08-24 09:35:00,
2013-08-24 05:38:00,64.1,64.1,30.05,WSW,245,0.0,0.0,100,0.00,,---,0.00,VWS V14.01,2013-08-24 09:38:00,
2013-08-24 05:40:00,64.7,64.7,30.04,WSW,245,0.0,0.0,100,0.00,,---,0.00,VWS V14.01,2013-08-24 09:40:00,
2013-08-24 05:43:00,64.3,64.3,30.05,WSW,245,0.0,0.0,100,0.00,,---,0.00,VWS V14.01,2013-08-24 09:43:00,
2013-08-24 05:45:00,64.6,64.6,30.04,WSW,245,0.0,0.0,100,0.00,,---,0.00,VWS V14.01,2013-08-24 09:45:00,
2013-08-24 05:48:00,64.3,64.3,30.06,WSW,245,0.0,0.0,100,0.00,,---,0.00,VWS V14.01,2013-08-24 09:48:00,
2013-08-24 05:50:00,64.6,64.6,30.04,WSW,245,0.0,0.0,100,0.00,,---,0.00,VWS V14.01,2013-08-24 09:50:00,
2013-08-24 05:53:00,64.2,64.2,30.06,WSW,245,0.0,0.0,100,0.00,,---,0.00,VWS V14.01,2013-08-24 09:53:00,
2013-08-24 05:55:00,64.4,64.4,30.05,WSW,245,0.0,0.0,100,0.00,,---,0.00,VWS V14.01,2013-08-24 09:55:00,
2013-08-24 05:58:00,64.5,64.5,30.06,WSW,246,0.0,0.0,100,0.00,,---,0.00,VWS V14.01,2013-08-24 09:58:00,
2013-08-24 06:00:00,64.5,64.5,30.05,WSW,245,0.0,0.0,100,0.00,,---,0.00,VWS V14.01,2013-08-24 10:00:00,
2013-08-24 06:03:00,64.7,64.7,30.06,WSW,245,0.0,0.0,100,0.00,,---,0.00,VWS V14.01,2013-08-24 10:03:00,
2013-08-24 06:05:00,64.3,64.3,30.05,WSW,245,0.0,0.0,100,0.00,,---,0.00,VWS V14.01,2013-08-24 10:05:00,
2013-08-24 06:08:00,65.1,65.1,30.06,ENE,58,0.0,0.0,100,0.00,,---,0.00,VWS V14.01,2013-08-24 10:08:00,
2013-08-24 06:10:00,64.3,64.3,30.05,WSW,245,0.0,0.0,100,0.00,,---,0.00,VWS V14.01,2013-08-24 10:10:00,
2013-08-24 06:13:00,65.6,65.6,30.06,NNW,328,0.0,2.0,100,0.00,,---,0.00,VWS V14.01,2013-08-24 10:13:00,
2013-08-24 06:15:00,64.3,64.3,30.05,WSW,245,0.0,0.0,100,0.00,,---,0.00,VWS V14.01,2013-08-24 10:15:00,
2013-08-24 06:18:00,65.9,65.9,30.06,NNE,25,0.0,1.0,100,0.00,,---,0.00,VWS V14.01,2013-08-24 10:18:00,
2013-08-24 06:20:00,64.3,64.3,30.05,WSW,245,0.0,0.0,100,0.00,,---,0.00,VWS V14.01,2013-08-24 10:20:00,
2013-08-24 06:23:00,66.0,66.0,30.06,East,93,0.0,1.0,100,0.00,,---,0.00,VWS V14.01,2013-08-24 10:23:00,
2013-08-24 06:25:00,64.2,64.2,30.05,WSW,245,0.0,0.0,100,0.00,,---,0.00,VWS V14.01,2013-08-24 10:25:00,
2013-08-24 06:28:00,66.3,66.3,30.06,ENE,72,0.0,1.0,100,0.00,,---,0.00,VWS V14.01,2013-08-24 10:28:00,
2013-08-24 06:30:00,64.2,64.2,30.05,WSW,245,0.0,0.0,100,0.00,,---,0.00,VWS V14.01,2013-08-24 10:30:00,
2013-08-24 06:33:00,66.3,66.3,30.07,ENE,71,0.0,1.0,100,0.00,,---,0.00,VWS V14.01,2013-08-24 10:33:00,
2013-08-24 06:35:00,64.1,64.1,30.05,WSW,245,0.0,0.0,100,0.00,,---,0.00,VWS V14.01,2013-08-24 10:35:00,
2013-08-24 06:38:00,66.2,66.2,30.07,NNE,24,0.0,1.0,100,0.00,,---,0.00,VWS V14.01,2013-08-24 10:38:00,
2013-08-24 06:40:00,64.2,64.2,30.05,WSW,245,0.0,0.0,100,0.00,,---,0.00,VWS V14.01,2013-08-24 10:40:00,
2013-08-24 06:43:00,66.2,66.2,30.07,NNE,26,0.0,1.0,100,0.00,,---,0.00,VWS V14.01,2013-08-24 10:43:00,
2013-08-24 06:45:00,64.3,64.3,30.05,WSW,245,0.0,0.0,100,0.00,,---,0.00,VWS V14.01,2013-08-24 10:45:00,
2013-08-24 06:48:00,66.3,66.3,30.07,East,86,0.0,1.0,100,0.00,,---,0.00,VWS V14.01,2013-08-24 10:48:00,
2013-08-24 06:50:00,64.3,64.3,30.05,WSW,245,0.0,0.0,100,0.00,,---,0.00,VWS V14.01,2013-08-24 10:50:00,
2013-08-24 06:53:00,66.4,66.4,30.07,ENE,75,0.0,1.0,100,0.00,,---,0.00,VWS V14.01,2013-08-24 10:53:00,
2013-08-24 06:55:00,64.3,64.3,30.06,WSW,245,0.0,0.0,100,0.00,,---,0.00,VWS V14.01,2013-08-24 10:55:00,
2013-08-24 06:58:00,66.6,66.6,30.07,ENE,62,0.0,1.0,100,0.00,,---,0.00,VWS V14.01,2013-08-24 10:58:00,
2013-08-24 07:00:00,64.5,64.5,30.06,WSW,245,0.0,0.0,100,0.00,,---,0.00,VWS V14.01,2013-08-24 11:00:00,
2013-08-24 07:03:00,66.6,66.6,30.08,ENE,62,0.0,1.0,100,0.00,,---,0.00,VWS V14.01,2013-08-24 11:03:00,
2013-08-24 07:05:00,64.8,64.8,30.06,WSW,246,0.0,0.0,100,0.00,,---,0.00,VWS V14.01,2013-08-24 11:05:00,
2013-08-24 07:08:00,66.6,66.6,30.08,ENE,57,0.0,1.0,100,0.00,,---,0.00,VWS V14.01,2013-08-24 11:08:00,
2013-08-24 07:10:00,65.2,65.2,30.06,NE,43,0.0,0.0,100,0.00,,---,0.00,VWS V14.01,2013-08-24 11:10:00,
2013-08-24 07:13:00,66.8,66.8,30.08,ENE,57,0.0,1.0,100,0.00,,---,0.00,VWS V14.01,2013-08-24 11:13:00,
2013-08-24 07:15:00,65.7,65.7,30.06,NE,41,1.0,2.0,100,0.00,,---,0.00,VWS V14.01,2013-08-24 11:15:00,
2013-08-24 07:18:00,66.8,66.8,30.08,NE,52,0.0,1.0,100,0.00,,---,0.00,VWS V14.01,2013-08-24 11:18:00,
2013-08-24 07:20:00,66.0,66.0,30.06,NW,321,0.0,1.0,100,0.00,,---,0.00,VWS V14.01,2013-08-24 11:20:00,
2013-08-24 07:23:00,66.9,66.9,30.09,NE,53,0.0,1.0,100,0.00,,---,0.00,VWS V14.01,2013-08-24 11:23:00,
2013-08-24 07:25:00,66.2,66.2,30.06,ENE,70,0.0,1.0,100,0.00,,---,0.00,VWS V14.01,2013-08-24 11:25:00,
2013-08-24 07:28:00,67.0,67.0,30.09,West,271,0.0,1.0,100,0.00,,---,0.00,VWS V14.01,2013-08-24 11:28:00,
2013-08-24 07:30:00,66.3,66.3,30.07,ENE,71,1.0,1.0,100,0.00,,---,0.00,VWS V14.01,2013-08-24 11:30:00,
2013-08-24 07:33:00,67.2,67.2,30.09,NE,36,0.0,1.0,100,0.00,,---,0.00,VWS V14.01,2013-08-24 11:33:00,
2013-08-24 07:35:00,66.3,66.3,30.07,ENE,71,0.0,1.0,100,0.00,,---,0.00,VWS V14.01,2013-08-24 11:35:00,
2013-08-24 07:38:00,67.4,67.4,30.09,ENE,68,0.0,2.0,100,0.00,,---,0.00,VWS V14.01,2013-08-24 11:38:00,
2013-08-24 07:40:00,66.2,66.2,30.07,NNE,27,0.0,1.0,100,0.00,,---,0.00,VWS V14.01,2013-08-24 11:40:00,
2013-08-24 07:43:00,67.9,67.9,30.09,NNW,328,1.0,3.0,100,0.00,,---,0.00,VWS V14.01,2013-08-24 11:43:00,
2013-08-24 07:45:00,66.3,66.3,30.07,NNE,27,0.0,1.0,100,0.00,,---,0.00,VWS V14.01,2013-08-24 11:45:00,
2013-08-24 07:48:00,68.1,68.1,30.09,NNE,28,0.0,2.0,100,0.00,,---,0.00,VWS V14.01,2013-08-24 11:48:00,
2013-08-24 07:50:00,66.3,66.3,30.07,North,349,0.0,1.0,100,0.00,,---,0.00,VWS V14.01,2013-08-24 11:50:00,
2013-08-24 07:53:00,68.3,68.3,30.10,NE,43,1.0,2.0,100,0.00,,---,0.00,VWS V14.01,2013-08-24 11:53:00,
2013-08-24 07:55:00,66.5,66.5,30.07,ENE,65,0.0,1.0,100,0.00,,---,0.00,VWS V14.01,2013-08-24 11:55:00,
2013-08-24 07:58:00,68.5,68.5,30.10,NE,53,1.0,4.0,100,0.00,,---,0.00,VWS V14.01,2013-08-24 11:58:00,
2013-08-24 08:00:00,66.6,66.6,30.07,ENE,62,0.0,1.0,100,0.00,,---,0.00,VWS V14.01,2013-08-24 12:00:00,
2013-08-24 08:03:00,68.9,68.6,30.10,ENE,58,1.0,3.0,99,0.00,,---,0.00,VWS V14.01,2013-08-24 12:03:00,
2013-08-24 08:05:00,66.6,66.6,30.08,ENE,62,0.0,1.0,100,0.00,,---,0.00,VWS V14.01,2013-08-24 12:05:00,
2013-08-24 08:08:00,69.2,68.6,30.10,NE,53,1.0,3.0,98,0.00,,---,0.00,VWS V14.01,2013-08-24 12:08:00,
2013-08-24 08:10:00,66.7,66.7,30.08,ENE,57,0.0,1.0,100,0.00,,---,0.00,VWS V14.01,2013-08-24 12:10:00,
2013-08-24 08:13:00,69.5,68.6,30.10,NNE,24,1.0,2.0,97,0.00,,---,0.00,VWS V14.01,2013-08-24 12:13:00,
2013-08-24 08:15:00,66.8,66.8,30.08,ENE,57,0.0,1.0,100,0.00,,---,0.00,VWS V14.01,2013-08-24 12:15:00,
2013-08-24 08:18:00,69.8,68.6,30.10,ENE,76,0.0,2.0,96,0.00,,---,0.00,VWS V14.01,2013-08-24 12:18:00,
2013-08-24 08:20:00,66.8,66.8,30.08,NE,52,0.0,1.0,100,0.00,,---,0.00,VWS V14.01,2013-08-24 12:20:00,
2013-08-24 08:23:00,70.1,68.9,30.10,NW,307,0.0,3.0,96,0.00,,---,0.00,VWS V14.01,2013-08-24 12:23:00,
2013-08-24 08:25:00,66.9,66.9,30.09,NE,53,0.0,1.0,100,0.00,,---,0.00,VWS V14.01,2013-08-24 12:25:00,
2013-08-24 08:28:00,70.5,69.3,30.10,NE,52,0.0,4.0,96,0.00,,---,0.00,VWS V14.01,2013-08-24 12:28:00,
2013-08-24 08:30:00,67.1,67.1,30.09,West,272,0.0,1.0,100,0.00,,---,0.00,VWS V14.01,2013-08-24 12:30:00,
2013-08-24 08:33:00,70.7,69.2,30.10,NE,40,1.0,4.0,95,0.00,,---,0.00,VWS V14.01,2013-08-24 12:33:00,
2013-08-24 08:35:00,67.2,67.2,30.09,NE,40,0.0,1.0,100,0.00,,---,0.00,VWS V14.01,2013-08-24 12:35:00,
2013-08-24 08:38:00,71.0,69.2,30.11,NE,39,2.0,6.0,94,0.00,,---,0.00,VWS V14.01,2013-08-24 12:38:00,
2013-08-24 08:40:00,67.5,67.5,30.09,NNE,25,1.0,3.0,100,0.00,,---,0.00,VWS V14.01,2013-08-24 12:40:00,
2013-08-24 08:43:00,71.1,69.3,30.11,NE,52,2.0,3.0,94,0.00,,---,0.00,VWS V14.01,2013-08-24 12:43:00,
2013-08-24 08:45:00,67.9,67.9,30.09,NNW,342,0.0,3.0,100,0.00,,---,0.00,VWS V14.01,2013-08-24 12:45:00,
2013-08-24 08:48:00,71.4,69.9,30.11,NE,54,0.0,2.0,95,0.00,,---,0.00,VWS V14.01,2013-08-24 12:48:00,
2013-08-24 08:50:00,68.2,68.2,30.09,NNE,31,0.0,2.0,100,0.00,,---,0.00,VWS V14.01,2013-08-24 12:50:00,
2013-08-24 08:53:00,71.8,70.0,30.12,NE,49,2.0,3.0,94,0.00,,---,0.00,VWS V14.01,2013-08-24 12:53:00,
2013-08-24 08:55:00,68.4,68.4,30.10,NE,49,1.0,2.0,100,0.00,,---,0.00,VWS V14.01,2013-08-24 12:55:00,
2013-08-24 08:58:00,71.8,69.7,30.12,ENE,72,2.0,7.0,93,0.00,,---,0.00,VWS V14.01,2013-08-24 12:58:00,
2013-08-24 09:00:00,68.6,68.6,30.10,ENE,70,0.0,4.0,100,0.00,,---,0.00,VWS V14.01,2013-08-24 13:00:00,
2013-08-24 09:03:00,71.6,69.5,30.12,ENE,64,1.0,5.0,93,0.00,,---,0.00,VWS V14.01,2013-08-24 13:03:00,
2013-08-24 09:05:00,69.0,68.7,30.10,NNE,30,0.0,3.0,99,0.00,,---,0.00,VWS V14.01,2013-08-24 13:05:00,
2013-08-24 09:08:00,71.4,69.0,30.12,NE,51,2.0,4.0,92,0.00,,---,0.00,VWS V14.01,2013-08-24 13:08:00,
2013-08-24 09:10:00,69.2,68.3,30.10,NE,44,0.0,3.0,97,0.00,,---,0.00,VWS V14.01,2013-08-24 13:10:00,
2013-08-24 09:13:00,71.1,69.0,30.12,ESE,117,1.0,4.0,93,0.00,,---,0.00,VWS V14.01,2013-08-24 13:13:00,
2013-08-24 09:15:00,69.6,68.7,30.10,NE,48,0.0,2.0,97,0.00,,---,0.00,VWS V14.01,2013-08-24 13:15:00,
2013-08-24 09:18:00,71.1,69.0,30.12,NE,37,0.0,5.0,93,0.00,,---,0.00,VWS V14.01,2013-08-24 13:18:00,
2013-08-24 09:20:00,69.9,68.7,30.10,SE,127,1.0,2.0,96,0.00,,---,0.00,VWS V14.01,2013-08-24 13:20:00,
2013-08-24 09:23:00,71.2,69.1,30.13,East,99,2.0,4.0,93,0.00,,---,0.00,VWS V14.01,2013-08-24 13:23:00,
2013-08-24 09:25:00,70.2,69.0,30.10,ENE,63,0.0,3.0,96,0.00,,---,0.00,VWS V14.01,2013-08-24 13:25:00,
2013-08-24 09:28:00,71.1,69.0,30.13,NNW,342,1.0,4.0,93,0.00,,---,0.00,VWS V14.01,2013-08-24 13:28:00,
2013-08-24 09:30:00,67.1,67.1,30.09,West,272,0.0,1.0,100,0.00,,---,0.00,VWS V14.01,2013-08-24 13:30:00,
2013-08-24 09:33:00,71.1,69.0,30.13,NNE,25,1.0,5.0,93,0.00,,---,0.00,VWS V14.01,2013-08-24 13:33:00,
2013-08-24 09:35:00,70.8,69.3,30.11,ESE,108,0.0,4.0,95,0.00,,---,0.00,VWS V14.01,2013-08-24 13:35:00,
2013-08-24 09:38:00,71.1,69.0,30.13,NE,43,0.0,4.0,93,0.00,,---,0.00,VWS V14.01,2013-08-24 13:38:00,
2013-08-24 09:40:00,71.0,69.2,30.11,NE,39,1.0,6.0,94,0.00,,---,0.00,VWS V14.01,2013-08-24 13:40:00,
2013-08-24 09:43:00,71.3,69.2,30.13,ESE,112,1.0,1.0,93,0.00,,---,0.00,VWS V14.01,2013-08-24 13:43:00,
2013-08-24 09:45:00,71.1,69.3,30.11,NNE,30,0.0,3.0,94,0.00,,---,0.00,VWS V14.01,2013-08-24 13:45:00,
2013-08-24 09:48:00,71.4,69.3,30.13,ENE,64,0.0,4.0,93,0.00,,---,0.00,VWS V14.01,2013-08-24 13:48:00,
2013-08-24 09:50:00,71.5,69.7,30.11,ESE,102,1.0,4.0,94,0.00,,---,0.00,VWS V14.01,2013-08-24 13:50:00,
2013-08-24 09:53:00,71.5,69.1,30.14,NE,49,0.0,1.0,92,0.00,,---,0.00,VWS V14.01,2013-08-24 13:53:00,
2013-08-24 09:55:00,71.9,69.8,30.12,NE,39,0.0,4.0,93,0.00,,---,0.00,VWS V14.01,2013-08-24 13:55:00,
2013-08-24 09:58:00,71.4,69.3,30.14,NE,49,2.0,4.0,93,0.00,,---,0.00,VWS V14.01,2013-08-24 13:58:00,
2013-08-24 10:00:00,71.7,69.6,30.12,ENE,58,5.0,7.0,93,0.00,,---,0.00,VWS V14.01,2013-08-24 14:00:00,
2013-08-24 10:03:00,71.3,69.2,30.14,ENE,77,0.0,2.0,93,0.00,,---,0.00,VWS V14.01,2013-08-24 14:03:00,
2013-08-24 10:05:00,71.6,69.5,30.12,ENE,60,0.0,5.0,93,0.00,,---,0.00,VWS V14.01,2013-08-24 14:05:00,
2013-08-24 10:08:00,71.5,69.1,30.14,East,83,1.0,5.0,92,0.00,,---,0.00,VWS V14.01,2013-08-24 14:08:00,
2013-08-24 10:10:00,71.3,69.2,30.12,NNW,343,0.0,4.0,93,0.00,,---,0.00,VWS V14.01,2013-08-24 14:10:00,
2013-08-24 10:13:00,71.5,68.7,30.14,NE,46,2.0,7.0,91,0.00,,---,0.00,VWS V14.01,2013-08-24 14:13:00,
2013-08-24 10:15:00,71.1,69.0,30.12,NE,41,2.0,4.0,93,0.00,,---,0.00,VWS V14.01,2013-08-24 14:15:00,
2013-08-24 10:18:00,71.8,69.0,30.14,East,101,1.0,3.0,91,0.00,,---,0.00,VWS V14.01,2013-08-24 14:18:00,
2013-08-24 10:20:00,71.1,69.3,30.12,NNE,33,0.0,5.0,94,0.00,,---,0.00,VWS V14.01,2013-08-24 14:20:00,
2013-08-24 10:23:00,72.0,69.2,30.14,NE,44,1.0,4.0,91,0.00,,---,0.00,VWS V14.01,2013-08-24 14:23:00,
2013-08-24 10:25:00,71.1,69.0,30.13,NE,53,0.0,6.0,93,0.00,,---,0.00,VWS V14.01,2013-08-24 14:25:00,
2013-08-24 10:28:00,72.4,69.3,30.14,East,85,0.0,5.0,90,0.00,,---,0.00,VWS V14.01,2013-08-24 14:28:00,
2013-08-24 10:30:00,71.1,69.0,30.13,NE,39,0.0,4.0,93,0.00,,---,0.00,VWS V14.01,2013-08-24 14:30:00,
2013-08-24 10:33:00,73.2,69.8,30.14,NNE,32,3.0,5.0,89,0.00,,---,0.00,VWS V14.01,2013-08-24 14:33:00,
2013-08-24 10:35:00,71.0,68.9,30.13,NE,34,0.0,5.0,93,0.00,,---,0.00,VWS V14.01,2013-08-24 14:35:00,
2013-08-24 10:38:00,73.2,69.8,30.14,NNW,328,1.0,3.0,89,0.00,,---,0.00,VWS V14.01,2013-08-24 14:38:00,
2013-08-24 10:40:00,71.1,69.3,30.13,NE,43,0.0,4.0,94,0.00,,---,0.00,VWS V14.01,2013-08-24 14:40:00,
2013-08-24 10:43:00,74.1,70.3,30.14,NNE,32,0.0,2.0,88,0.00,,---,0.00,VWS V14.01,2013-08-24 14:43:00,
2013-08-24 10:45:00,71.4,69.3,30.13,ENE,67,2.0,2.0,93,0.00,,---,0.00,VWS V14.01,2013-08-24 14:45:00,
2013-08-24 10:48:00,74.6,70.1,30.14,East,82,2.0,6.0,86,0.00,,---,0.00,VWS V14.01,2013-08-24 14:48:00,
2013-08-24 10:50:00,71.5,69.4,30.14,ENE,60,0.0,4.0,93,0.00,,---,0.00,VWS V14.01,2013-08-24 14:50:00,
2013-08-24 10:53:00,74.1,69.7,30.14,North,358,2.0,6.0,86,0.00,,---,0.00,VWS V14.01,2013-08-24 14:53:00,
2013-08-24 10:55:00,71.5,69.1,30.14,East,95,2.0,3.0,92,0.00,,---,0.00,VWS V14.01,2013-08-24 14:55:00,
2013-08-24 10:58:00,74.0,69.9,30.15,NE,39,1.0,4.0,87,0.00,,---,0.00,VWS V14.01,2013-08-24 14:58:00,
2013-08-24 11:00:00,71.3,69.2,30.14,NE,42,2.0,4.0,93,0.00,,---,0.00,VWS V14.01,2013-08-24 15:00:00,
2013-08-24 11:03:00,73.8,70.0,30.15,NE,43,2.0,3.0,88,0.00,,---,0.00,VWS V14.01,2013-08-24 15:03:00,
2013-08-24 11:05:00,71.4,69.6,30.14,NNE,29,0.0,2.0,94,0.00,,---,0.00,VWS V14.01,2013-08-24 15:05:00,
2013-08-24 11:08:00,73.6,69.5,30.15,NE,36,0.0,5.0,87,0.00,,---,0.00,VWS V14.01,2013-08-24 15:08:00,
2013-08-24 11:10:00,71.5,69.1,30.14,ENE,68,1.0,5.0,92,0.00,,---,0.00,VWS V14.01,2013-08-24 15:10:00,
2013-08-24 11:13:00,73.6,69.2,30.15,ESE,122,0.0,4.0,86,0.00,,---,0.00,VWS V14.01,2013-08-24 15:13:00,
2013-08-24 11:15:00,71.5,68.7,30.14,ENE,62,1.0,7.0,91,0.00,,---,0.00,VWS V14.01,2013-08-24 15:15:00,
2013-08-24 11:18:00,74.1,70.0,30.15,WNW,283,0.0,1.0,87,0.00,,---,0.00,VWS V14.01,2013-08-24 15:18:00,
2013-08-24 11:20:00,71.8,69.0,30.14,NNE,28,2.0,4.0,91,0.00,,---,0.00,VWS V14.01,2013-08-24 15:20:00,
2013-08-24 11:23:00,75.8,71.0,30.14,SE,129,4.0,6.0,85,0.00,,---,0.00,VWS V14.01,2013-08-24 15:23:00,
2013-08-24 11:25:00,72.0,68.9,30.14,NE,46,2.0,4.0,90,0.00,,---,0.00,VWS V14.01,2013-08-24 15:25:00,
2013-08-24 11:28:00,75.3,70.1,30.15,ESE,122,3.0,6.0,84,0.00,,---,0.00,VWS V14.01,2013-08-24 15:28:00,
2013-08-24 11:30:00,72.7,69.6,30.14,NE,46,1.0,5.0,90,0.00,,---,0.00,VWS V14.01,2013-08-24 15:30:00,
2013-08-24 11:33:00,75.9,70.4,30.15,ENE,65,2.0,7.0,83,0.00,,---,0.00,VWS V14.01,2013-08-24 15:33:00,
2013-08-24 11:35:00,73.1,69.3,30.14,NE,56,1.0,5.0,88,0.00,,---,0.00,VWS V14.01,2013-08-24 15:35:00,
2013-08-24 11:38:00,76.1,70.6,30.15,ENE,78,3.0,4.0,83,0.00,,---,0.00,VWS V14.01,2013-08-24 15:38:00,
2013-08-24 11:40:00,73.4,70.0,30.14,NE,51,2.0,3.0,89,0.00,,---,0.00,VWS V14.01,2013-08-24 15:40:00,
2013-08-24 11:43:00,75.9,70.7,30.15,NE,46,1.0,3.0,84,0.00,,---,0.00,VWS V14.01,2013-08-24 15:43:00,
2013-08-24 11:45:00,74.4,70.9,30.14,North,10,0.0,2.0,89,0.00,,---,0.00,VWS V14.01,2013-08-24 15:45:00,
2013-08-24 11:48:00,76.0,71.2,30.15,ESE,123,1.0,2.0,85,0.00,,---,0.00,VWS V14.01,2013-08-24 15:48:00,
2013-08-24 11:50:00,74.4,69.9,30.14,East,85,3.0,6.0,86,0.00,,---,0.00,VWS V14.01,2013-08-24 15:50:00,
2013-08-24 11:53:00,76.7,71.2,30.15,North,3,0.0,3.0,83,0.00,,---,0.00,VWS V14.01,2013-08-24 15:53:00,
2013-08-24 11:55:00,74.0,69.6,30.14,ESE,123,3.0,6.0,86,0.00,,---,0.00,VWS V14.01,2013-08-24 15:55:00,
2013-08-24 11:58:00,77.1,71.2,30.15,NNE,27,1.0,2.0,82,0.00,,---,0.00,VWS V14.01,2013-08-24 15:58:00,
2013-08-24 12:00:00,74.0,69.6,30.15,NNE,17,2.0,4.0,86,0.00,,---,0.00,VWS V14.01,2013-08-24 16:00:00,
2013-08-24 12:03:00,77.1,71.5,30.14,NE,37,2.0,3.0,83,0.00,,---,0.00,VWS V14.01,2013-08-24 16:03:00,
2013-08-24 12:05:00,73.7,69.6,30.15,NE,55,1.0,3.0,87,0.00,,---,0.00,VWS V14.01,2013-08-24 16:05:00,
2013-08-24 12:08:00,76.9,71.0,30.14,ENE,65,1.0,6.0,82,0.00,,---,0.00,VWS V14.01,2013-08-24 16:08:00,
2013-08-24 12:10:00,73.6,69.5,30.15,East,97,4.0,5.0,87,0.00,,---,0.00,VWS V14.01,2013-08-24 16:10:00,
2013-08-24 12:13:00,77.8,71.9,30.14,NNE,30,2.0,8.0,82,0.00,,---,0.00,VWS V14.01,2013-08-24 16:13:00,
2013-08-24 12:15:00,73.6,69.2,30.15,NNE,30,1.0,4.0,86,0.00,,---,0.00,VWS V14.01,2013-08-24 16:15:00,
2013-08-24 12:18:00,77.7,70.7,30.14,East,82,1.0,7.0,79,0.00,,---,0.00,VWS V14.01,2013-08-24 16:18:00,
2013-08-24 12:20:00,74.5,70.4,30.15,WNW,283,1.0,1.0,87,0.00,,---,0.00,VWS V14.01,2013-08-24 16:20:00,
2013-08-24 12:23:00,78.1,71.4,30.14,East,82,0.0,6.0,80,0.00,,---,0.00,VWS V14.01,2013-08-24 16:23:00,
2013-08-24 12:25:00,75.7,70.2,30.15,ESE,114,4.0,7.0,83,0.00,,---,0.00,VWS V14.01,2013-08-24 16:25:00,
2013-08-24 12:28:00,79.9,72.4,30.14,WSW,258,2.0,3.0,78,0.00,,---,0.00,VWS V14.01,2013-08-24 16:28:00,
2013-08-24 12:30:00,75.4,70.9,30.15,ESE,120,3.0,6.0,86,0.00,,---,0.00,VWS V14.01,2013-08-24 16:30:00,
2013-08-24 12:33:00,80.2,70.8,30.14,West,264,0.0,4.0,73,0.00,,---,0.00,VWS V14.01,2013-08-24 16:33:00,
2013-08-24 12:35:00,75.9,70.7,30.15,NNE,28,3.0,7.0,84,0.00,,---,0.00,VWS V14.01,2013-08-24 16:35:00,
2013-08-24 12:38:00,80.6,71.9,30.13,WSW,243,0.0,3.0,75,0.00,,---,0.00,VWS V14.01,2013-08-24 16:38:00,
2013-08-24 12:40:00,76.1,70.2,30.15,ENE,73,3.0,4.0,82,0.00,,---,0.00,VWS V14.01,2013-08-24 16:40:00,
2013-08-24 12:43:00,80.6,71.2,30.14,ESE,102,3.0,4.0,73,0.00,,---,0.00,VWS V14.01,2013-08-24 16:43:00,
2013-08-24 12:45:00,75.9,70.7,30.15,NE,51,1.0,3.0,84,0.00,,---,0.00,VWS V14.01,2013-08-24 16:45:00,
2013-08-24 12:48:00,79.9,70.9,30.14,East,101,4.0,5.0,74,0.00,,---,0.00,VWS V14.01,2013-08-24 16:48:00,
2013-08-24 12:50:00,76.3,71.1,30.15,NE,56,2.0,2.0,84,0.00,,---,0.00,VWS V14.01,2013-08-24 16:50:00,
2013-08-24 12:53:00,79.7,71.1,30.13,NE,44,2.0,5.0,75,0.00,,---,0.00,VWS V14.01,2013-08-24 16:53:00,
2013-08-24 12:55:00,76.9,71.3,30.15,NNE,25,0.0,3.0,83,0.00,,---,0.00,VWS V14.01,2013-08-24 16:55:00,
2013-08-24 12:58:00,81.1,72.0,30.13,ENE,77,3.0,5.0,74,0.00,,---,0.00,VWS V14.01,2013-08-24 16:58:00,
2013-08-24 13:00:00,77.0,71.1,30.15,West,259,2.0,2.0,82,0.00,,---,0.00,VWS V14.01,2013-08-24 17:00:00,
2013-08-24 13:03:00,81.5,70.8,30.13,East,79,0.0,1.0,70,0.00,,---,0.00,VWS V14.01,2013-08-24 17:03:00,
2013-08-24 13:05:00,77.1,70.8,30.14,NE,56,1.0,3.0,81,0.00,,---,0.00,VWS V14.01,2013-08-24 17:05:00,
2013-08-24 13:08:00,82.6,71.8,30.13,SSW,207,1.0,2.0,70,0.00,,---,0.00,VWS V14.01,2013-08-24 17:08:00,
2013-08-24 13:10:00,77.2,71.3,30.14,ENE,65,0.0,6.0,82,0.00,,---,0.00,VWS V14.01,2013-08-24 17:10:00,
2013-08-24 13:13:00,83.2,71.6,30.13,South,190,0.0,3.0,68,0.00,,---,0.00,VWS V14.01,2013-08-24 17:13:00,
2013-08-24 13:15:00,77.7,70.7,30.14,East,87,4.0,8.0,79,0.00,,---,0.00,VWS V14.01,2013-08-24 17:15:00,
2013-08-24 13:18:00,84.1,72.4,30.13,SW,226,0.0,1.0,68,0.00,,---,0.00,VWS V14.01,2013-08-24 17:18:00,
2013-08-24 13:20:00,77.9,70.9,30.14,ENE,65,2.0,7.0,79,0.00,,---,0.00,VWS V14.01,2013-08-24 17:20:00,
2013-08-24 13:23:00,84.6,72.0,30.13,NE,49,1.0,1.0,66,0.00,,---,0.00,VWS V14.01,2013-08-24 17:23:00,
2013-08-24 13:25:00,78.4,72.1,30.14,NE,54,0.0,6.0,81,0.00,,---,0.00,VWS V14.01,2013-08-24 17:25:00,
2013-08-24 13:28:00,83.7,71.6,30.13,SE,145,0.0,2.0,67,0.00,,---,0.00,VWS V14.01,2013-08-24 17:28:00,
2013-08-24 13:30:00,80.4,72.9,30.14,ESE,106,1.0,3.0,78,0.00,,---,0.00,VWS V14.01,2013-08-24 17:30:00,
2013-08-24 13:33:00,82.5,71.7,30.13,SSE,162,0.0,7.0,70,0.00,,---,0.00,VWS V14.01,2013-08-24 17:33:00,
2013-08-24 13:35:00,80.2,72.3,30.14,WNW,282,2.0,4.0,77,0.00,,---,0.00,VWS V14.01,2013-08-24 17:35:00,
2013-08-24 13:38:00,82.9,72.1,30.13,NE,45,2.0,3.0,70,0.00,,---,0.00,VWS V14.01,2013-08-24 17:38:00,
2013-08-24 13:40:00,80.8,71.8,30.13,East,91,3.0,3.0,74,0.00,,---,0.00,VWS V14.01,2013-08-24 17:40:00,
2013-08-24 13:43:00,82.4,71.6,30.13,North,6,1.0,3.0,70,0.00,,---,0.00,VWS V14.01,2013-08-24 17:43:00,
2013-08-24 13:45:00,80.4,71.0,30.13,East,83,1.0,4.0,73,0.00,,---,0.00,VWS V14.01,2013-08-24 17:45:00,
2013-08-24 13:48:00,82.2,72.3,30.13,East,100,1.0,2.0,72,0.00,,---,0.00,VWS V14.01,2013-08-24 17:48:00,
2013-08-24 13:50:00,79.8,70.8,30.13,ESE,122,1.0,5.0,74,0.00,,---,0.00,VWS V14.01,2013-08-24 17:50:00,
2013-08-24 13:53:00,82.3,72.4,30.13,WSW,245,2.0,2.0,72,0.00,,---,0.00,VWS V14.01,2013-08-24 17:53:00,
2013-08-24 13:55:00,76.9,71.3,30.15,NNE,25,0.0,3.0,83,0.00,,---,0.00,VWS V14.01,2013-08-24 17:55:00,
2013-08-24 13:58:00,82.7,73.2,30.13,WSW,240,0.0,5.0,73,0.00,,---,0.00,VWS V14.01,2013-08-24 17:58:00,
2013-08-24 14:00:00,81.0,71.1,30.13,ENE,75,1.0,5.0,72,0.00,,---,0.00,VWS V14.01,2013-08-24 18:00:00,
2013-08-24 14:03:00,83.0,72.6,30.13,South,190,1.0,3.0,71,0.00,,---,0.00,VWS V14.01,2013-08-24 18:03:00,
2013-08-24 14:05:00,81.8,71.9,30.13,WSW,246,0.0,1.0,72,0.00,,---,0.00,VWS V14.01,2013-08-24 18:05:00,
2013-08-24 14:08:00,83.2,72.4,30.13,WNW,293,2.0,4.0,70,0.00,,---,0.00,VWS V14.01,2013-08-24 18:08:00,
2013-08-24 14:10:00,82.9,72.5,30.13,SSW,195,2.0,3.0,71,0.00,,---,0.00,VWS V14.01,2013-08-24 18:10:00,
2013-08-24 14:13:00,83.4,72.6,30.13,SSW,200,1.0,5.0,70,0.00,,---,0.00,VWS V14.01,2013-08-24 18:13:00,
2013-08-24 14:15:00,83.3,71.2,30.13,SSW,209,0.0,3.0,67,0.00,,---,0.00,VWS V14.01,2013-08-24 18:15:00,
2013-08-24 14:18:00,83.6,72.4,30.13,WSW,255,0.0,5.0,69,0.00,,---,0.00,VWS V14.01,2013-08-24 18:18:00,
2013-08-24 14:20:00,84.4,72.2,30.13,ESE,105,0.0,1.0,67,0.00,,---,0.00,VWS V14.01,2013-08-24 18:20:00,
2013-08-24 14:23:00,85.0,72.8,30.13,South,184,2.0,3.0,67,0.00,,---,0.00,VWS V14.01,2013-08-24 18:23:00,
2013-08-24 14:25:00,84.4,72.2,30.13,NE,52,1.0,1.0,67,0.00,,---,0.00,VWS V14.01,2013-08-24 18:25:00,
2013-08-24 14:28:00,85.7,72.6,30.13,SE,136,0.0,3.0,65,0.00,,---,0.00,VWS V14.01,2013-08-24 18:28:00,
2013-08-24 14:30:00,83.7,72.0,30.13,ENE,64,2.0,3.0,68,0.00,,---,0.00,VWS V14.01,2013-08-24 18:30:00,
2013-08-24 14:33:00,85.8,72.2,30.13,SW,223,4.0,5.0,64,0.00,,---,0.00,VWS V14.01,2013-08-24 18:33:00,
2013-08-24 14:35:00,82.6,72.2,30.13,SW,222,1.0,7.0,71,0.00,,---,0.00,VWS V14.01,2013-08-24 18:35:00,
2013-08-24 14:38:00,85.2,72.1,30.12,NE,55,2.0,5.0,65,0.00,,---,0.00,VWS V14.01,2013-08-24 18:38:00,
2013-08-24 14:40:00,82.8,72.0,30.13,NE,34,1.0,3.0,70,0.00,,---,0.00,VWS V14.01,2013-08-24 18:40:00,
2013-08-24 14:44:00,84.2,71.2,30.13,East,86,1.0,5.0,65,0.00,,---,0.00,VWS V14.01,2013-08-24 18:44:00,
2013-08-24 14:45:00,82.3,72.0,30.13,North,4,0.0,3.0,71,0.00,,---,0.00,VWS V14.01,2013-08-24 18:45:00,
2013-08-24 14:49:00,84.0,71.9,30.12,East,96,4.0,4.0,67,0.00,,---,0.00,VWS V14.01,2013-08-24 18:49:00,
2013-08-24 14:50:00,82.1,71.3,30.13,East,100,1.0,2.0,70,0.00,,---,0.00,VWS V14.01,2013-08-24 18:50:00,
2013-08-24 14:54:00,84.0,71.9,30.12,ENE,74,3.0,5.0,67,0.00,,---,0.00,VWS V14.01,2013-08-24 18:54:00,
2013-08-24 14:55:00,82.4,72.5,30.13,SW,228,2.0,4.0,72,0.00,,---,0.00,VWS V14.01,2013-08-24 18:55:00,
2013-08-24 14:59:00,83.6,71.5,30.12,East,85,2.0,5.0,67,0.00,,---,0.00,VWS V14.01,2013-08-24 18:59:00,
2013-08-24 15:00:00,82.9,72.5,30.13,SW,236,1.0,5.0,71,0.00,,---,0.00,VWS V14.01,2013-08-24 19:00:00,
2013-08-24 15:04:00,84.0,71.4,30.12,East,101,1.0,3.0,66,0.00,,---,0.00,VWS V14.01,2013-08-24 19:04:00,
2013-08-24 15:05:00,83.0,72.6,30.13,NW,316,1.0,4.0,71,0.00,,---,0.00,VWS V14.01,2013-08-24 19:05:00,
2013-08-24 15:09:00,83.9,71.8,30.12,NE,44,1.0,2.0,67,0.00,,---,0.00,VWS V14.01,2013-08-24 19:09:00,
2013-08-24 15:10:00,83.2,72.4,30.13,WSW,240,5.0,5.0,70,0.00,,---,0.00,VWS V14.01,2013-08-24 19:10:00,
2013-08-24 15:14:00,85.3,73.1,30.12,ENE,63,0.0,1.0,67,0.00,,---,0.00,VWS V14.01,2013-08-24 19:14:00,
2013-08-24 15:15:00,83.5,71.8,30.13,NE,46,4.0,6.0,68,0.00,,---,0.00,VWS V14.01,2013-08-24 19:15:00,
2013-08-24 15:19:00,85.4,73.2,30.11,East,100,1.0,2.0,67,0.00,,---,0.00,VWS V14.01,2013-08-24 19:19:00,
2013-08-24 15:20:00,83.9,73.1,30.13,NE,37,1.0,5.0,70,0.00,,---,0.00,VWS V14.01,2013-08-24 19:20:00,
2013-08-24 15:24:00,85.6,72.0,30.11,SE,124,1.0,5.0,64,0.00,,---,0.00,VWS V14.01,2013-08-24 19:24:00,
2013-08-24 15:25:00,85.1,72.5,30.13,SSE,153,1.0,3.0,66,0.00,,---,0.00,VWS V14.01,2013-08-24 19:25:00,
2013-08-24 15:29:00,85.9,71.8,30.11,SSE,166,1.0,3.0,63,0.00,,---,0.00,VWS V14.01,2013-08-24 19:29:00,
2013-08-24 15:30:00,85.9,73.2,30.13,West,269,1.0,3.0,66,0.00,,---,0.00,VWS V14.01,2013-08-24 19:30:00,
2013-08-24 15:34:00,86.7,71.2,30.11,West,265,1.0,4.0,60,0.00,,---,0.00,VWS V14.01,2013-08-24 19:34:00,
2013-08-24 15:35:00,85.7,73.0,30.13,West,265,5.0,5.0,66,0.00,,---,0.00,VWS V14.01,2013-08-24 19:35:00,
2013-08-24 15:39:00,86.0,70.5,30.11,WSW,255,3.0,5.0,60,0.00,,---,0.00,VWS V14.01,2013-08-24 19:39:00,
2013-08-24 15:40:00,85.3,72.2,30.12,ENE,63,4.0,6.0,65,0.00,,---,0.00,VWS V14.01,2013-08-24 19:40:00,
2013-08-24 15:44:00,86.0,71.5,30.11,East,87,0.0,3.0,62,0.00,,---,0.00,VWS V14.01,2013-08-24 19:44:00,
2013-08-24 15:45:00,84.0,71.4,30.13,ENE,60,2.0,5.0,66,0.00,,---,0.00,VWS V14.01,2013-08-24 19:45:00,
2013-08-24 15:49:00,86.7,72.1,30.11,NNE,23,1.0,1.0,62,0.00,,---,0.00,VWS V14.01,2013-08-24 19:49:00,
2013-08-24 15:50:00,83.9,71.3,30.12,NE,54,1.0,5.0,66,0.00,,---,0.00,VWS V14.01,2013-08-24 19:50:00,
2013-08-24 15:54:00,87.6,72.0,30.11,ESE,103,2.0,4.0,60,0.00,,---,0.00,VWS V14.01,2013-08-24 19:54:00,
2013-08-24 15:55:00,84.0,71.9,30.12,SSE,150,2.0,5.0,67,0.00,,---,0.00,VWS V14.01,2013-08-24 19:55:00,
2013-08-24 15:59:00,87.1,70.0,30.11,SSE,157,2.0,7.0,57,0.00,,---,0.00,VWS V14.01,2013-08-24 19:59:00,
2013-08-24 16:00:00,83.6,71.9,30.12,WSW,245,0.0,5.0,68,0.00,,---,0.00,VWS V14.01,2013-08-24 20:00:00,
2013-08-24 16:04:00,86.7,71.2,30.11,South,191,0.0,3.0,60,0.00,,---,0.00,VWS V14.01,2013-08-24 20:04:00,
2013-08-24 16:05:00,84.0,71.9,30.12,East,89,0.0,3.0,67,0.00,,---,0.00,VWS V14.01,2013-08-24 20:05:00,
2013-08-24 16:09:00,87.2,71.1,30.11,SW,231,3.0,4.0,59,0.00,,---,0.00,VWS V14.01,2013-08-24 20:09:00,
2013-08-24 16:10:00,84.0,71.4,30.12,NE,46,1.0,2.0,66,0.00,,---,0.00,VWS V14.01,2013-08-24 20:10:00,
2013-08-24 16:14:00,88.0,71.4,30.10,South,186,0.0,3.0,58,0.00,,---,0.00,VWS V14.01,2013-08-24 20:14:00,
2013-08-24 16:15:00,85.6,72.9,30.12,NE,37,1.0,2.0,66,0.00,,---,0.00,VWS V14.01,2013-08-24 20:15:00,
2013-08-24 16:19:00,88.3,70.1,30.10,WSW,246,2.0,4.0,55,0.00,,---,0.00,VWS V14.01,2013-08-24 20:19:00,
2013-08-24 16:20:00,85.3,73.1,30.11,SSW,196,1.0,2.0,67,0.00,,---,0.00,VWS V14.01,2013-08-24 20:20:00,
2013-08-24 16:24:00,87.5,70.9,30.10,ENE,73,2.0,2.0,58,0.00,,---,0.00,VWS V14.01,2013-08-24 20:24:00,
2013-08-24 16:25:00,85.6,72.0,30.11,NNE,28,0.0,5.0,64,0.00,,---,0.00,VWS V14.01,2013-08-24 20:25:00,
2013-08-24 16:29:00,87.2,71.1,30.10,NNW,334,0.0,2.0,59,0.00,,---,0.00,VWS V14.01,2013-08-24 20:29:00,
2013-08-24 16:30:00,86.2,72.1,30.11,SW,219,0.0,3.0,63,0.00,,---,0.00,VWS V14.01,2013-08-24 20:30:00,
2013-08-24 16:34:00,87.8,71.7,30.10,NNW,330,1.0,2.0,59,0.00,,---,0.00,VWS V14.01,2013-08-24 20:34:00,
2013-08-24 16:35:00,86.5,71.9,30.11,South,173,4.0,6.0,62,0.00,,---,0.00,VWS V14.01,2013-08-24 20:35:00,
2013-08-24 16:39:00,87.5,72.4,30.10,West,262,1.0,6.0,61,0.00,,---,0.00,VWS V14.01,2013-08-24 20:39:00,
2013-08-24 16:40:00,85.9,70.4,30.11,South,172,1.0,5.0,60,0.00,,---,0.00,VWS V14.01,2013-08-24 20:40:00,
2013-08-24 16:44:00,86.7,70.7,30.10,WSW,258,2.0,5.0,59,0.00,,---,0.00,VWS V14.01,2013-08-24 20:44:00,
2013-08-24 16:45:00,86.0,71.0,30.11,East,87,0.0,3.0,61,0.00,,---,0.00,VWS V14.01,2013-08-24 20:45:00,
2013-08-24 16:49:00,86.9,70.4,30.10,SSW,212,0.0,2.0,58,0.00,,---,0.00,VWS V14.01,2013-08-24 20:49:00,
2013-08-24 16:50:00,86.9,71.8,30.11,NE,34,0.0,1.0,61,0.00,,---,0.00,VWS V14.01,2013-08-24 20:50:00,
2013-08-24 16:54:00,87.2,70.6,30.10,SE,129,2.0,4.0,58,0.00,,---,0.00,VWS V14.01,2013-08-24 20:54:00,
2013-08-24 16:55:00,87.5,71.4,30.11,WNW,287,1.0,4.0,59,0.00,,---,0.00,VWS V14.01,2013-08-24 20:55:00,
2013-08-24 16:59:00,86.5,71.5,30.10,ESE,120,0.0,3.0,61,0.00,,---,0.00,VWS V14.01,2013-08-24 20:59:00,
2013-08-24 17:00:00,87.1,70.5,30.11,SSE,153,1.0,7.0,58,0.00,,---,0.00,VWS V14.01,2013-08-24 21:00:00,
2013-08-24 17:04:00,87.2,72.1,30.10,ENE,63,2.0,5.0,61,0.00,,---,0.00,VWS V14.01,2013-08-24 21:04:00,
2013-08-24 17:05:00,86.8,70.3,30.11,West,274,1.0,3.0,58,0.00,,---,0.00,VWS V14.01,2013-08-24 21:05:00,
2013-08-24 17:09:00,86.9,71.3,30.10,NE,46,1.0,3.0,60,0.00,,---,0.00,VWS V14.01,2013-08-24 21:09:00,
2013-08-24 17:10:00,87.4,71.3,30.11,SE,130,2.0,4.0,59,0.00,,---,0.00,VWS V14.01,2013-08-24 21:10:00,
2013-08-24 17:14:00,87.7,72.6,30.10,East,88,4.0,4.0,61,0.00,,---,0.00,VWS V14.01,2013-08-24 21:14:00,
2013-08-24 17:15:00,88.2,71.1,30.10,WSW,238,0.0,3.0,57,0.00,,---,0.00,VWS V14.01,2013-08-24 21:15:00,
2013-08-24 17:19:00,87.2,72.6,30.10,NE,56,1.0,3.0,62,0.00,,---,0.00,VWS V14.01,2013-08-24 21:19:00,
2013-08-24 17:20:00,88.0,70.3,30.10,WSW,254,1.0,4.0,56,0.00,,---,0.00,VWS V14.01,2013-08-24 21:20:00,
2013-08-24 17:24:00,87.2,71.6,30.09,East,92,0.0,2.0,60,0.00,,---,0.00,VWS V14.01,2013-08-24 21:24:00,
2013-08-24 17:25:00,87.3,69.7,30.10,ENE,73,0.0,2.0,56,0.00,,---,0.00,VWS V14.01,2013-08-24 21:25:00,
2013-08-24 17:29:00,86.9,71.8,30.09,SE,128,2.0,3.0,61,0.00,,---,0.00,VWS V14.01,2013-08-24 21:29:00,
2013-08-24 17:30:00,87.4,71.3,30.10,NNW,336,1.0,2.0,59,0.00,,---,0.00,VWS V14.01,2013-08-24 21:30:00,
2013-08-24 17:34:00,86.2,72.1,30.09,North,1,1.0,4.0,63,0.00,,---,0.00,VWS V14.01,2013-08-24 21:34:00,
2013-08-24 17:35:00,87.9,71.8,30.10,NNW,331,0.0,2.0,59,0.00,,---,0.00,VWS V14.01,2013-08-24 21:35:00,
2013-08-24 17:39:00,86.4,73.2,30.09,East,90,1.0,3.0,65,0.00,,---,0.00,VWS V14.01,2013-08-24 21:39:00,
2013-08-24 17:40:00,87.3,71.7,30.10,West,259,1.0,6.0,60,0.00,,---,0.00,VWS V14.01,2013-08-24 21:40:00,
2013-08-24 17:44:00,86.5,71.9,30.09,WNW,301,1.0,2.0,62,0.00,,---,0.00,VWS V14.01,2013-08-24 21:44:00,
2013-08-24 17:45:00,86.5,70.5,30.10,West,261,1.0,5.0,59,0.00,,---,0.00,VWS V14.01,2013-08-24 21:45:00,
2013-08-24 17:49:00,87.0,73.8,30.09,North,7,1.0,1.0,65,0.00,,---,0.00,VWS V14.01,2013-08-24 21:49:00,
2013-08-24 17:50:00,87.1,70.5,30.10,WSW,243,0.0,2.0,58,0.00,,---,0.00,VWS V14.01,2013-08-24 21:50:00,
2013-08-24 17:54:00,86.1,71.6,30.09,East,93,2.0,4.0,62,0.00,,---,0.00,VWS V14.01,2013-08-24 21:54:00,
2013-08-24 17:55:00,87.1,70.5,30.10,East,82,2.0,4.0,58,0.00,,---,0.00,VWS V14.01,2013-08-24 21:55:00,
2013-08-24 17:59:00,85.9,73.2,30.09,ESE,113,1.0,2.0,66,0.00,,---,0.00,VWS V14.01,2013-08-24 21:59:00,
2013-08-24 18:00:00,86.6,71.1,30.10,ESE,121,0.0,3.0,60,0.00,,---,0.00,VWS V14.01,2013-08-24 22:00:00,
2013-08-24 18:04:00,85.4,73.2,30.09,ENE,60,4.0,4.0,67,0.00,,---,0.00,VWS V14.01,2013-08-24 22:04:00,
2013-08-24 18:05:00,87.2,71.6,30.10,NE,52,1.0,5.0,60,0.00,,---,0.00,VWS V14.01,2013-08-24 22:05:00,
2013-08-24 18:09:00,85.1,72.9,30.09,ENE,68,0.0,3.0,67,0.00,,---,0.00,VWS V14.01,2013-08-24 22:09:00,
2013-08-24 18:10:00,86.8,71.3,30.10,NE,44,0.0,3.0,60,0.00,,---,0.00,VWS V14.01,2013-08-24 22:10:00,
2013-08-24 18:14:00,86.6,73.4,30.09,ENE,66,0.0,1.0,65,0.00,,---,0.00,VWS V14.01,2013-08-24 22:14:00,
2013-08-24 18:15:00,87.7,71.6,30.10,East,84,2.0,4.0,59,0.00,,---,0.00,VWS V14.01,2013-08-24 22:15:00,
2013-08-24 18:19:00,87.5,72.9,30.09,North,2,0.0,1.0,62,0.00,,---,0.00,VWS V14.01,2013-08-24 22:19:00,
2013-08-24 18:20:00,87.1,72.5,30.10,NE,53,1.0,3.0,62,0.00,,---,0.00,VWS V14.01,2013-08-24 22:20:00,
2013-08-24 18:24:00,87.7,71.6,30.09,North,2,0.0,1.0,59,0.00,,---,0.00,VWS V14.01,2013-08-24 22:24:00,
2013-08-24 18:25:00,87.3,71.7,30.09,East,91,0.0,2.0,60,0.00,,---,0.00,VWS V14.01,2013-08-24 22:25:00,
2013-08-24 18:29:00,88.1,72.0,30.09,North,2,0.0,1.0,59,0.00,,---,0.00,VWS V14.01,2013-08-24 22:29:00,
2013-08-24 18:30:00,86.7,70.7,30.09,SE,128,0.0,3.0,59,0.00,,---,0.00,VWS V14.01,2013-08-24 22:30:00,
2013-08-24 18:34:00,88.3,72.2,30.09,North,1,0.0,1.0,59,0.00,,---,0.00,VWS V14.01,2013-08-24 22:34:00,
2013-08-24 18:35:00,86.2,73.1,30.09,East,94,1.0,4.0,65,0.00,,---,0.00,VWS V14.01,2013-08-24 22:35:00,
2013-08-24 18:39:00,88.1,72.0,30.09,North,359,1.0,2.0,59,0.00,,---,0.00,VWS V14.01,2013-08-24 22:39:00,
2013-08-24 18:40:00,86.4,71.8,30.09,East,90,0.0,3.0,62,0.00,,---,0.00,VWS V14.01,2013-08-24 22:40:00,
2013-08-24 18:44:00,86.9,72.3,30.09,NE,53,0.0,3.0,62,0.00,,---,0.00,VWS V14.01,2013-08-24 22:44:00,
2013-08-24 18:45:00,86.5,71.9,30.09,NW,306,0.0,2.0,62,0.00,,---,0.00,VWS V14.01,2013-08-24 22:45:00,
2013-08-24 18:49:00,86.5,72.9,30.09,East,81,1.0,1.0,64,0.00,,---,0.00,VWS V14.01,2013-08-24 22:49:00,
2013-08-24 18:50:00,87.0,73.8,30.09,NE,55,1.0,1.0,65,0.00,,---,0.00,VWS V14.01,2013-08-24 22:50:00,
2013-08-24 18:54:00,85.9,73.2,30.09,East,85,0.0,1.0,66,0.00,,---,0.00,VWS V14.01,2013-08-24 22:54:00,
2013-08-24 18:55:00,86.0,71.5,30.09,East,93,0.0,4.0,62,0.00,,---,0.00,VWS V14.01,2013-08-24 22:55:00,
2013-08-24 18:59:00,85.7,73.5,30.09,North,359,0.0,2.0,67,0.00,,---,0.00,VWS V14.01,2013-08-24 22:59:00,
2013-08-24 19:00:00,85.8,73.1,30.09,SE,132,2.0,3.0,66,0.00,,---,0.00,VWS V14.01,2013-08-24 23:00:00,
2013-08-24 19:04:00,84.9,73.6,30.09,SSE,154,1.0,1.0,69,0.00,,---,0.00,VWS V14.01,2013-08-24 23:04:00,
2013-08-24 19:05:00,85.4,72.3,30.09,East,85,2.0,4.0,65,0.00,,---,0.00,VWS V14.01,2013-08-24 23:05:00,
2013-08-24 19:09:00,84.3,71.3,30.09,East,80,3.0,5.0,65,0.00,,---,0.00,VWS V14.01,2013-08-24 23:09:00,
2013-08-24 19:10:00,85.2,73.0,30.09,ENE,68,0.0,3.0,67,0.00,,---,0.00,VWS V14.01,2013-08-24 23:10:00,
2013-08-24 19:14:00,83.5,71.4,30.09,ENE,71,3.0,3.0,67,0.00,,---,0.00,VWS V14.01,2013-08-24 23:14:00,
2013-08-24 19:15:00,86.7,73.1,30.09,ENE,66,0.0,1.0,64,0.00,,---,0.00,VWS V14.01,2013-08-24 23:15:00,
2013-08-24 19:19:00,83.0,71.4,30.10,East,84,0.0,2.0,68,0.00,,---,0.00,VWS V14.01,2013-08-24 23:19:00,
2013-08-24 19:20:00,87.5,72.4,30.09,North,2,1.0,1.0,61,0.00,,---,0.00,VWS V14.01,2013-08-24 23:20:00,
2013-08-24 19:24:00,82.8,71.6,30.10,East,98,0.0,3.0,69,0.00,,---,0.00,VWS V14.01,2013-08-24 23:24:00,
2013-08-24 19:25:00,87.8,71.7,30.09,North,2,0.0,1.0,59,0.00,,---,0.00,VWS V14.01,2013-08-24 23:25:00,
2013-08-24 19:29:00,82.4,72.1,30.09,ENE,69,0.0,2.0,71,0.00,,---,0.00,VWS V14.01,2013-08-24 23:29:00,
2013-08-24 19:30:00,88.1,72.0,30.09,North,2,0.0,1.0,59,0.00,,---,0.00,VWS V14.01,2013-08-24 23:30:00,
2013-08-24 19:34:00,82.0,71.7,30.09,East,82,0.0,1.0,71,0.00,,---,0.00,VWS V14.01,2013-08-24 23:34:00,
2013-08-24 19:35:00,88.3,72.2,30.09,North,1,0.0,1.0,59,0.00,,---,0.00,VWS V14.01,2013-08-24 23:35:00,
2013-08-24 19:39:00,82.1,72.2,30.09,East,82,0.0,0.0,72,0.00,,---,0.00,VWS V14.01,2013-08-24 23:39:00,
2013-08-24 19:40:00,87.9,71.8,30.09,North,359,0.0,2.0,59,0.00,,---,0.00,VWS V14.01,2013-08-24 23:40:00,
2013-08-24 19:44:00,81.9,73.2,30.09,East,82,0.0,0.0,75,0.00,,---,0.00,VWS V14.01,2013-08-24 23:44:00,
2013-08-24 19:45:00,86.8,72.2,30.09,NE,53,0.0,3.0,62,0.00,,---,0.00,VWS V14.01,2013-08-24 23:45:00,
2013-08-24 19:49:00,81.3,73.0,30.09,East,82,0.0,0.0,76,0.00,,---,0.00,VWS V14.01,2013-08-24 23:49:00,
2013-08-24 19:50:00,86.4,71.8,30.09,ENE,75,1.0,1.0,62,0.00,,---,0.00,VWS V14.01,2013-08-24 23:50:00,
2013-08-24 19:54:00,80.6,73.1,30.10,East,82,0.0,0.0,78,0.00,,---,0.00,VWS V14.01,2013-08-24 23:54:00,
2013-08-24 19:55:00,85.9,73.2,30.09,East,85,0.0,1.0,66,0.00,,---,0.00,VWS V14.01,2013-08-24 23:55:00,
2013-08-24 19:59:00,79.9,72.8,30.10,East,82,0.0,0.0,79,0.00,,---,0.00,VWS V14.01,2013-08-24 23:59:00,
2013-08-24 20:00:00,85.6,73.4,30.09,North,360,0.0,2.0,67,0.00,,---,0.00,VWS V14.01,2013-08-25 00:00:00,
2013-08-24 20:04:00,79.4,72.7,30.10,East,82,0.0,0.0,80,0.00,,---,0.00,VWS V14.01,2013-08-25 00:04:00,
2013-08-24 20:05:00,84.9,73.6,30.09,South,172,0.0,1.0,69,0.00,,---,0.00,VWS V14.01,2013-08-25 00:05:00,
2013-08-24 20:09:00,78.6,72.3,30.10,East,82,0.0,0.0,81,0.00,,---,0.00,VWS V14.01,2013-08-25 00:09:00,
2013-08-24 20:10:00,84.2,71.2,30.09,East,86,3.0,5.0,65,0.00,,---,0.00,VWS V14.01,2013-08-25 00:10:00,
2013-08-24 20:14:00,78.5,72.6,30.11,East,82,0.0,0.0,82,0.00,,---,0.00,VWS V14.01,2013-08-25 00:14:00,
2013-08-24 20:15:00,83.5,71.4,30.09,East,94,1.0,3.0,67,0.00,,---,0.00,VWS V14.01,2013-08-25 00:15:00,
2013-08-24 20:19:00,78.0,73.1,30.11,East,82,0.0,0.0,85,0.00,,---,0.00,VWS V14.01,2013-08-25 00:19:00,
2013-08-24 20:20:00,83.0,71.8,30.10,East,83,0.0,2.0,69,0.00,,---,0.00,VWS V14.01,2013-08-25 00:20:00,
2013-08-24 20:24:00,77.4,72.2,30.11,SE,124,0.0,5.0,84,0.00,,---,0.00,VWS V14.01,2013-08-25 00:24:00,
2013-08-24 20:25:00,82.7,71.5,30.10,East,98,1.0,3.0,69,0.00,,---,0.00,VWS V14.01,2013-08-25 00:25:00,
2013-08-24 20:29:00,77.3,72.1,30.12,ENE,72,2.0,6.0,84,0.00,,---,0.00,VWS V14.01,2013-08-25 00:29:00,
2013-08-24 20:30:00,82.4,71.6,30.09,ENE,69,1.0,2.0,70,0.00,,---,0.00,VWS V14.01,2013-08-25 00:30:00,
2013-08-24 20:34:00,77.2,72.0,30.12,ESE,121,1.0,5.0,84,0.00,,---,0.00,VWS V14.01,2013-08-25 00:34:00,
2013-08-24 20:35:00,82.0,71.7,30.09,East,82,0.0,1.0,71,0.00,,---,0.00,VWS V14.01,2013-08-25 00:35:00,
2013-08-24 20:39:00,77.1,71.5,30.12,ESE,108,0.0,3.0,83,0.00,,---,0.00,VWS V14.01,2013-08-25 00:39:00,
2013-08-24 20:40:00,82.0,72.1,30.09,East,82,0.0,0.0,72,0.00,,---,0.00,VWS V14.01,2013-08-25 00:40:00,
2013-08-24 20:44:00,76.9,71.3,30.12,SE,138,0.0,3.0,83,0.00,,---,0.00,VWS V14.01,2013-08-25 00:44:00,
2013-08-24 20:45:00,81.9,73.2,30.09,East,82,0.0,0.0,75,0.00,,---,0.00,VWS V14.01,2013-08-25 00:45:00,
2013-08-24 20:49:00,76.7,71.2,30.12,East,98,0.0,1.0,83,0.00,,---,0.00,VWS V14.01,2013-08-25 00:49:00,
2013-08-24 20:50:00,81.2,72.9,30.09,East,82,0.0,0.0,76,0.00,,---,0.00,VWS V14.01,2013-08-25 00:50:00,
2013-08-24 20:54:00,76.7,71.2,30.13,East,92,0.0,1.0,83,0.00,,---,0.00,VWS V14.01,2013-08-25 00:54:00,
2013-08-24 20:55:00,80.5,73.0,30.10,East,82,0.0,0.0,78,0.00,,---,0.00,VWS V14.01,2013-08-25 00:55:00,
2013-08-24 20:59:00,76.6,71.1,30.13,WSW,248,0.0,1.0,83,0.00,,---,0.00,VWS V14.01,2013-08-25 00:59:00,
2013-08-24 21:00:00,79.8,73.1,30.10,East,82,0.0,0.0,80,0.00,,---,0.00,VWS V14.01,2013-08-25 01:00:00,
2013-08-24 21:04:00,76.4,71.2,30.13,WNW,282,0.0,1.0,84,0.00,,---,0.00,VWS V14.01,2013-08-25 01:04:00,
2013-08-24 21:05:00,79.3,73.0,30.10,East,82,0.0,0.0,81,0.00,,---,0.00,VWS V14.01,2013-08-25 01:05:00,
2013-08-24 21:09:00,76.2,70.7,30.14,East,86,0.0,1.0,83,0.00,,---,0.00,VWS V14.01,2013-08-25 01:09:00,
2013-08-24 21:10:00,78.6,72.3,30.10,East,82,0.0,0.0,81,0.00,,---,0.00,VWS V14.01,2013-08-25 01:10:00,
2013-08-24 21:14:00,76.2,70.7,30.14,East,98,0.0,4.0,83,0.00,,---,0.00,VWS V14.01,2013-08-25 01:14:00,
2013-08-24 21:15:00,78.5,72.6,30.11,East,82,0.0,0.0,82,0.00,,---,0.00,VWS V14.01,2013-08-25 01:15:00,
2013-08-24 21:19:00,76.2,70.7,30.14,WNW,285,1.0,2.0,83,0.00,,---,0.00,VWS V14.01,2013-08-25 01:19:00,
2013-08-24 21:20:00,77.9,73.0,30.11,East,82,0.0,0.0,85,0.00,,---,0.00,VWS V14.01,2013-08-25 01:20:00,
2013-08-24 21:24:00,76.0,70.8,30.15,SW,228,0.0,2.0,84,0.00,,---,0.00,VWS V14.01,2013-08-25 01:24:00,
2013-08-24 21:25:00,77.3,72.1,30.11,SE,125,1.0,5.0,84,0.00,,---,0.00,VWS V14.01,2013-08-25 01:25:00,
2013-08-24 21:29:00,75.9,70.4,30.15,SSW,211,4.0,4.0,83,0.00,,---,0.00,VWS V14.01,2013-08-25 01:29:00,
2013-08-24 21:30:00,77.3,72.1,30.12,East,82,2.0,6.0,84,0.00,,---,0.00,VWS V14.01,2013-08-25 01:30:00,
2013-08-24 21:34:00,75.7,70.2,30.15,SE,129,0.0,5.0,83,0.00,,---,0.00,VWS V14.01,2013-08-25 01:34:00,
2013-08-24 21:35:00,77.2,71.6,30.12,SE,144,1.0,5.0,83,0.00,,---,0.00,VWS V14.01,2013-08-25 01:35:00,
2013-08-24 21:39:00,75.5,70.0,30.15,SW,219,4.0,4.0,83,0.00,,---,0.00,VWS V14.01,2013-08-25 01:39:00,
2013-08-24 21:40:00,77.0,71.4,30.12,ESE,108,1.0,3.0,83,0.00,,---,0.00,VWS V14.01,2013-08-25 01:40:00,
2013-08-24 21:44:00,75.4,70.2,30.15,SE,140,3.0,4.0,84,0.00,,---,0.00,VWS V14.01,2013-08-25 01:44:00,
2013-08-24 21:45:00,76.9,71.3,30.12,SE,138,0.0,3.0,83,0.00,,---,0.00,VWS V14.01,2013-08-25 01:45:00,
2013-08-24 21:49:00,75.3,70.1,30.16,SW,236,0.0,5.0,84,0.00,,---,0.00,VWS V14.01,2013-08-25 01:49:00,
2013-08-24 21:50:00,76.7,71.2,30.12,East,98,0.0,1.0,83,0.00,,---,0.00,VWS V14.01,2013-08-25 01:50:00,
2013-08-24 21:54:00,75.1,69.9,30.16,SSW,210,4.0,5.0,84,0.00,,---,0.00,VWS V14.01,2013-08-25 01:54:00,
2013-08-24 21:55:00,76.6,71.1,30.13,East,92,0.0,1.0,83,0.00,,---,0.00,VWS V14.01,2013-08-25 01:55:00,
2013-08-24 21:59:00,75.0,70.2,30.16,SW,231,0.0,7.0,85,0.00,,---,0.00,VWS V14.01,2013-08-25 01:59:00,
2013-08-24 22:00:00,76.6,71.1,30.13,WSW,248,0.0,1.0,83,0.00,,---,0.00,VWS V14.01,2013-08-25 02:00:00,
2013-08-24 22:04:00,74.9,70.1,30.16,WNW,285,4.0,4.0,85,0.00,,---,0.00,VWS V14.01,2013-08-25 02:04:00,
2013-08-24 22:05:00,76.4,71.2,30.13,WNW,282,0.0,1.0,84,0.00,,---,0.00,VWS V14.01,2013-08-25 02:05:00,
2013-08-24 22:09:00,74.9,70.1,30.16,WSW,242,1.0,4.0,85,0.00,,---,0.00,VWS V14.01,2013-08-25 02:09:00,
2013-08-24 22:10:00,76.2,70.7,30.14,East,82,1.0,1.0,83,0.00,,---,0.00,VWS V14.01,2013-08-25 02:10:00,
2013-08-24 22:14:00,74.7,69.9,30.16,WSW,239,2.0,3.0,85,0.00,,---,0.00,VWS V14.01,2013-08-25 02:14:00,
2013-08-24 22:15:00,76.2,70.7,30.14,ESE,103,0.0,4.0,83,0.00,,---,0.00,VWS V14.01,2013-08-25 02:15:00,
2013-08-24 22:19:00,74.5,69.7,30.16,WSW,258,3.0,3.0,85,0.00,,---,0.00,VWS V14.01,2013-08-25 02:19:00,
2013-08-24 22:20:00,76.2,70.7,30.14,WNW,285,0.0,2.0,83,0.00,,---,0.00,VWS V14.01,2013-08-25 02:20:00,
2013-08-24 22:24:00,74.3,69.5,30.17,WSW,252,1.0,6.0,85,0.00,,---,0.00,VWS V14.01,2013-08-25 02:24:00,
2013-08-24 22:25:00,76.0,70.8,30.15,SW,228,0.0,2.0,84,0.00,,---,0.00,VWS V14.01,2013-08-25 02:25:00,
2013-08-24 22:29:00,74.2,69.4,30.17,SW,224,0.0,4.0,85,0.00,,---,0.00,VWS V14.01,2013-08-25 02:29:00,
2013-08-24 22:30:00,75.9,70.4,30.15,SSW,203,5.0,5.0,83,0.00,,---,0.00,VWS V14.01,2013-08-25 02:30:00,
2013-08-24 22:34:00,74.2,69.4,30.17,SW,223,0.0,2.0,85,0.00,,---,0.00,VWS V14.01,2013-08-25 02:34:00,
2013-08-24 22:35:00,75.7,70.2,30.15,SE,129,0.0,5.0,83,0.00,,---,0.00,VWS V14.01,2013-08-25 02:35:00,
2013-08-24 22:39:00,74.1,69.7,30.17,SW,228,0.0,0.0,86,0.00,,---,0.00,VWS V14.01,2013-08-25 02:39:00,
2013-08-24 22:40:00,75.5,70.0,30.15,SW,219,4.0,4.0,83,0.00,,---,0.00,VWS V14.01,2013-08-25 02:40:00,
2013-08-24 22:44:00,73.9,69.4,30.17,SSW,211,2.0,3.0,86,0.00,,---,0.00,VWS V14.01,2013-08-25 02:44:00,
2013-08-24 22:45:00,75.4,70.2,30.15,SE,134,3.0,4.0,84,0.00,,---,0.00,VWS V14.01,2013-08-25 02:45:00,
2013-08-24 22:49:00,73.8,69.3,30.17,NW,316,0.0,2.0,86,0.00,,---,0.00,VWS V14.01,2013-08-25 02:49:00,
2013-08-24 22:50:00,75.3,70.1,30.16,SW,236,0.0,5.0,84,0.00,,---,0.00,VWS V14.01,2013-08-25 02:50:00,
2013-08-24 22:54:00,73.7,69.3,30.17,WSW,244,0.0,3.0,86,0.00,,---,0.00,VWS V14.01,2013-08-25 02:54:00,
2013-08-24 22:55:00,75.1,69.9,30.16,SSW,210,4.0,5.0,84,0.00,,---,0.00,VWS V14.01,2013-08-25 02:55:00,
2013-08-24 23:00:00,73.5,69.4,30.17,SSW,212,1.0,2.0,87,0.00,,---,0.00,VWS V14.01,2013-08-25 03:00:00,
2013-08-24 23:05:00,73.3,69.2,30.17,SSW,212,1.0,1.0,87,0.00,,---,0.00,VWS V14.01,2013-08-25 03:05:00,
2013-08-24 23:10:00,73.2,69.1,30.18,WSW,249,2.0,2.0,87,0.00,,---,0.00,VWS V14.01,2013-08-25 03:10:00,
2013-08-24 23:15:00,73.1,69.3,30.18,SW,234,1.0,1.0,88,0.00,,---,0.00,VWS V14.01,2013-08-25 03:15:00,
2013-08-24 23:20:00,73.0,69.2,30.18,SW,225,0.0,0.0,88,0.00,,---,0.00,VWS V14.01,2013-08-25 03:20:00,
2013-08-24 23:25:00,73.0,69.2,30.18,SW,226,0.0,0.0,88,0.00,,---,0.00,VWS V14.01,2013-08-25 03:25:00,
2013-08-24 23:30:00,72.8,69.4,30.18,SW,226,0.0,0.0,89,0.00,,---,0.00,VWS V14.01,2013-08-25 03:30:00,
2013-08-24 23:35:00,72.7,69.6,30.18,SW,226,0.0,0.0,90,0.00,,---,0.00,VWS V14.01,2013-08-25 03:35:00,
2013-08-24 23:40:00,72.4,69.0,30.18,SW,226,0.0,0.0,89,0.00,,---,0.00,VWS V14.01,2013-08-25 03:40:00,
2013-08-24 23:45:00,72.2,69.1,30.19,SW,226,0.0,0.0,90,0.00,,---,0.00,VWS V14.01,2013-08-25 03:45:00,
2013-08-24 23:50:00,72.1,69.3,30.19,SW,226,0.0,0.0,91,0.00,,---,0.00,VWS V14.01,2013-08-25 03:50:00,
2013-08-24 23:55:00,72.2,69.4,30.19,WSW,243,0.0,0.0,91,0.00,,---,0.00,VWS V14.01,2013-08-25 03:55:00,